Time;durP1;ratioP1;P1;durP2;ratioP2;P2;SDS_P1;SDS_P2;PMS_P1;PMS_P2;Temp;Humidity;BMP_temperature;BMP_pressure;BME280_temperature;BME280_humidity;BME280_pressure;Samples;Min_cycle;Max_cycle;Signal;HPM_P1;HPM_P2
2022/10/14 00:02:16;;;;;;;7.68;2.90;;;19.00;99.90;;;;;;4955605;29;20034;-73
2022/10/14 00:04:42;;;;;;;6.28;2.60;;;19.00;99.90;;;;;;4955732;29;20093;-73
2022/10/14 00:07:08;;;;;;;8.77;2.78;;;18.90;99.90;;;;;;4956202;28;20023;-72
2022/10/14 00:09:35;;;;;;;8.75;2.75;;;18.80;99.90;;;;;;4938486;29;20487;-72
2022/10/14 00:12:01;;;;;;;10.00;2.80;;;18.80;99.90;;;;;;4955614;28;20031;-73
2022/10/14 00:14:27;;;;;;;8.68;2.80;;;18.80;99.90;;;;;;4955310;29;20090;-72
2022/10/14 00:16:54;;;;;;;7.07;2.97;;;18.80;99.90;;;;;;4955349;29;20031;-72
2022/10/14 00:19:20;;;;;;;7.70;2.78;;;18.80;99.90;;;;;;4954945;28;20492;-73
2022/10/14 00:21:46;;;;;;;9.38;2.72;;;18.90;99.90;;;;;;4955712;29;20050;-73
2022/10/14 00:24:15;;;;;;;9.30;3.20;;;18.80;99.90;;;;;;4937603;29;20066;-71
2022/10/14 00:26:42;;;;;;;7.57;2.80;;;18.90;99.90;;;;;;4955041;29;20053;-72
2022/10/14 00:29:13;;;;;;;8.52;2.83;;;18.90;99.90;;;;;;4955008;29;20456;-72
2022/10/14 00:31:39;;;;;;;9.45;3.15;;;18.90;99.90;;;;;;4955086;29;20030;-72
2022/10/14 00:34:06;;;;;;;8.27;2.65;;;18.90;99.90;;;;;;4955172;29;20027;-72
2022/10/14 00:36:33;;;;;;;8.23;2.70;;;18.80;99.90;;;;;;4954918;29;20054;-72
2022/10/14 00:38:59;;;;;;;8.63;2.78;;;18.80;99.90;;;;;;4954710;29;20456;-73
2022/10/14 00:41:32;;;;;;;8.52;2.88;;;18.80;99.90;;;;;;4954983;29;20027;-73
2022/10/14 00:44:05;;;;;;;7.82;2.80;;;18.80;99.90;;;;;;4954653;29;20472;-72
2022/10/14 00:46:40;;;;;;;5.85;2.63;;;18.80;99.90;;;;;;4937438;29;20342;-73
2022/10/14 00:49:29;;;;;;;8.40;3.30;;;18.80;99.90;;;;;;4955069;29;20082;-72
2022/10/14 00:52:11;;;;;;;6.00;2.75;;;18.80;99.90;;;;;;4955041;29;20038;-72
2022/10/14 00:54:43;;;;;;;9.20;2.67;;;18.80;99.90;;;;;;4937541;29;20031;-72
2022/10/14 00:57:10;;;;;;;8.13;2.70;;;18.80;99.90;;;;;;4954874;29;20051;-72
2022/10/14 00:59:37;;;;;;;;;;;18.80;99.90;;;;;;4954996;29;20035;-73
2022/10/14 01:02:03;;;;;;;7.57;2.65;;;18.90;99.90;;;;;;4954565;29;19933;-71
2022/10/14 01:04:30;;;;;;;5.90;2.30;;;18.90;99.90;;;;;;4954732;29;20031;-72
2022/10/14 01:07:05;;;;;;;;;;;18.90;99.90;;;;;;4954696;29;20554;-73
2022/10/14 01:10:08;;;;;;;7.40;2.70;;;18.90;99.90;;;;;;4953813;28;19930;-72
2022/10/14 01:12:49;;;;;;;3.95;2.47;;;19.00;99.90;;;;;;4954385;29;20090;-71
2022/10/14 01:15:36;;;;;;;8.13;2.58;;;18.90;99.90;;;;;;4936807;29;20114;-72
2022/10/14 01:18:46;;;;;;;8.55;2.70;;;18.90;99.90;;;;;;4954025;29;20400;-72
2022/10/14 01:21:24;;;;;;;8.80;2.58;;;18.80;99.90;;;;;;4954457;29;20353;-71
2022/10/14 01:24:04;;;;;;;5.60;2.60;;;18.70;99.90;;;;;;4954267;29;20048;-72
2022/10/14 01:26:34;;;;;;;8.55;2.60;;;18.60;99.90;;;;;;4936672;29;20023;-73
2022/10/14 01:29:22;;;;;;;5.60;2.50;;;18.60;99.90;;;;;;4954052;29;20370;-72
2022/10/14 01:32:04;;;;;;;5.95;2.90;;;18.60;99.90;;;;;;4936529;29;20051;-72
2022/10/14 01:34:39;;;;;;;6.07;2.83;;;18.50;99.90;;;;;;4954458;29;20086;-73
2022/10/14 01:37:12;;;;;;;9.73;2.80;;;18.50;99.90;;;;;;4954090;29;20026;-73
2022/10/14 01:39:49;;;;;;;5.95;2.47;;;18.50;99.90;;;;;;4954297;29;20027;-72
2022/10/14 01:42:22;;;;;;;7.20;2.50;;;18.50;99.90;;;;;;4936379;29;20026;-69
2022/10/14 01:44:56;;;;;;;4.82;2.60;;;18.60;99.90;;;;;;4954209;29;20066;-71
2022/10/14 01:47:26;;;;;;;6.88;2.95;;;18.60;99.90;;;;;;4936304;29;20023;-72
2022/10/14 01:49:58;;;;;;;6.15;2.42;;;18.70;99.90;;;;;;4953599;29;20031;-71
2022/10/14 01:52:31;;;;;;;7.43;2.50;;;18.60;99.90;;;;;;4953518;29;20035;-72
2022/10/14 01:55:03;;;;;;;9.32;2.58;;;18.60;99.90;;;;;;4953776;29;20071;-73
2022/10/14 01:57:33;;;;;;;5.57;2.72;;;18.50;99.90;;;;;;4935963;29;20023;-71
2022/10/14 02:00:00;;;;;;;6.50;2.78;;;18.50;99.90;;;;;;4953444;29;20028;-72
2022/10/14 02:02:27;;;;;;;6.80;2.80;;;18.50;99.90;;;;;;4952582;29;20054;-71
2022/10/14 02:04:54;;;;;;;8.45;2.97;;;18.40;99.90;;;;;;4953414;29;20027;-73
2022/10/14 02:07:32;;;;;;;7.50;3.00;;;18.40;99.90;;;;;;4936276;29;20035;-72
2022/10/14 02:10:01;;;;;;;4.85;2.58;;;18.30;99.90;;;;;;4953523;29;20035;-73
2022/10/14 02:12:44;;;;;;;5.22;2.75;;;18.40;99.90;;;;;;4953363;29;20074;-73
2022/10/14 02:15:32;;;;;;;7.35;2.78;;;18.40;99.90;;;;;;4953747;29;20121;-72
2022/10/14 02:18:04;;;;;;;7.03;2.72;;;18.40;99.90;;;;;;4952985;29;20059;-73
2022/10/14 02:20:43;;;;;;;6.00;2.55;;;18.40;99.90;;;;;;4953414;28;20346;-72
2022/10/14 02:23:20;;;;;;;7.05;2.40;;;18.40;99.90;;;;;;4953163;29;20365;-72
2022/10/14 02:25:48;;;;;;;6.00;2.47;;;18.40;99.90;;;;;;4953171;29;20549;-73
2022/10/14 02:28:18;;;;;;;5.63;2.40;;;18.50;99.90;;;;;;4935527;29;20110;-72
2022/10/14 02:30:51;;;;;;;3.85;2.15;;;18.50;99.90;;;;;;4952732;29;20031;-73
2022/10/14 02:33:20;;;;;;;6.15;2.58;;;18.50;99.90;;;;;;4953004;29;20424;-72
2022/10/14 02:35:48;;;;;;;4.78;2.20;;;18.50;99.90;;;;;;4952895;29;20038;-73
2022/10/14 02:38:16;;;;;;;4.97;2.28;;;18.50;99.90;;;;;;4953171;29;20027;-73
2022/10/14 02:40:46;;;;;;;4.70;2.40;;;18.50;99.90;;;;;;4935618;29;20122;-71
2022/10/14 02:43:13;;;;;;;5.88;2.25;;;18.50;99.90;;;;;;4953313;29;20231;-72
2022/10/14 02:45:42;;;;;;;5.07;2.30;;;18.50;99.90;;;;;;4953023;29;20027;-72
2022/10/14 02:48:09;;;;;;;4.25;2.00;;;18.50;99.90;;;;;;4952797;29;20070;-72
2022/10/14 02:50:35;;;;;;;6.78;2.10;;;18.60;99.90;;;;;;4952999;29;20480;-72
2022/10/14 02:53:01;;;;;;;5.53;2.53;;;18.60;99.90;;;;;;4952724;29;20082;-72
2022/10/14 02:55:27;;;;;;;6.53;2.30;;;18.60;99.90;;;;;;4952915;29;20019;-73
2022/10/14 02:57:55;;;;;;;4.72;2.65;;;18.60;99.90;;;;;;4953226;29;20027;-72
2022/10/14 03:00:21;;;;;;;8.07;2.65;;;18.60;99.90;;;;;;4953083;29;20062;-73
2022/10/14 03:02:48;;;;;;;7.32;2.60;;;18.80;99.90;;;;;;4953134;29;20532;-72
2022/10/14 03:05:14;;;;;;;4.18;2.35;;;18.80;99.90;;;;;;4953057;29;20113;-73
2022/10/14 03:07:40;;;;;;;5.18;2.40;;;18.70;99.90;;;;;;4953350;29;20039;-73
2022/10/14 03:10:06;;;;;;;8.48;2.83;;;18.70;99.90;;;;;;4953248;29;20086;-72
2022/10/14 03:12:32;;;;;;;5.97;2.72;;;18.70;99.90;;;;;;4920056;29;20027;-74
2022/10/14 03:14:58;;;;;;;8.30;2.60;;;18.70;99.90;;;;;;4952641;29;20050;-73
2022/10/14 03:17:24;;;;;;;5.82;2.83;;;18.60;99.90;;;;;;4952679;29;20033;-72
2022/10/14 03:19:50;;;;;;;5.72;3.00;;;18.60;99.90;;;;;;4953108;29;20035;-72
2022/10/14 03:22:18;;;;;;;7.82;3.28;;;18.60;99.90;;;;;;4952708;29;20114;-72
2022/10/14 03:24:44;;;;;;;5.57;2.80;;;18.60;99.90;;;;;;4936428;29;20031;-73
2022/10/14 03:27:10;;;;;;;6.35;3.00;;;18.50;99.90;;;;;;4953935;29;20046;-73
2022/10/14 03:29:36;;;;;;;4.38;2.70;;;18.60;99.90;;;;;;4954362;29;20027;-73
2022/10/14 03:32:02;;;;;;;7.80;2.95;;;18.60;99.90;;;;;;4937718;29;20341;-73
2022/10/14 03:34:28;;;;;;;9.88;3.22;;;18.60;99.90;;;;;;4957252;29;20364;-73
2022/10/14 03:36:54;;;;;;;7.50;3.30;;;18.50;99.90;;;;;;4957805;29;20038;-73
2022/10/14 03:39:20;;;;;;;6.15;3.00;;;18.50;99.90;;;;;;4957338;29;20030;-73
2022/10/14 03:41:46;;;;;;;7.38;3.20;;;18.50;99.90;;;;;;4956822;29;20031;-73
2022/10/14 03:44:12;;;;;;;10.00;3.10;;;18.60;99.90;;;;;;4956244;29;20043;-72
2022/10/14 03:46:39;;;;;;;;;;;18.60;99.90;;;;;;4956682;29;20038;-69
2022/10/14 03:49:05;;;;;;;9.70;3.40;;;18.60;99.90;;;;;;4959493;28;19914;-72
2022/10/14 03:51:33;;;;;;;8.95;3.10;;;18.60;99.90;;;;;;4976098;28;20034;-72
2022/10/14 03:53:59;;;;;;;7.05;3.00;;;18.60;99.90;;;;;;4959034;28;20384;-72
2022/10/14 03:56:26;;;;;;;8.85;3.17;;;18.60;99.90;;;;;;4963120;28;20023;-69
2022/10/14 03:58:53;;;;;;;9.45;3.00;;;18.60;99.90;;;;;;4976061;28;20043;-72
2022/10/14 04:01:19;;;;;;;7.05;2.67;;;18.60;99.90;;;;;;4975860;28;20479;-74
2022/10/14 04:03:46;;;;;;;6.80;2.90;;;18.60;99.90;;;;;;4969998;28;20360;-72
2022/10/14 04:06:15;;;;;;;7.13;2.92;;;18.60;99.90;;;;;;4975180;28;20459;-74
2022/10/14 04:08:42;;;;;;;8.25;2.97;;;18.60;99.90;;;;;;4975081;28;20053;-73
2022/10/14 04:11:09;;;;;;;6.93;2.95;;;18.70;99.90;;;;;;4952415;29;20031;-70
2022/10/14 04:13:38;;;;;;;4.95;2.88;;;18.70;99.90;;;;;;4964368;28;20031;-73
2022/10/14 04:16:09;;;;;;;6.68;2.90;;;18.70;99.90;;;;;;4950705;28;20023;-69
2022/10/14 04:18:36;;;;;;;7.93;3.20;;;18.70;99.90;;;;;;4975785;28;20098;-71
2022/10/14 04:21:07;;;;;;;6.45;3.25;;;18.60;99.90;;;;;;4955738;28;20043;-73
2022/10/14 04:23:33;;;;;;;8.50;3.13;;;18.60;99.90;;;;;;4956735;28;20035;-71
2022/10/14 04:26:05;;;;;;;8.68;3.53;;;18.60;99.90;;;;;;4956361;29;20043;-73
2022/10/14 04:28:32;;;;;;;8.90;3.20;;;18.60;99.90;;;;;;4956478;28;20063;-74
2022/10/14 04:30:58;;;;;;;8.70;3.10;;;18.60;99.90;;;;;;4956364;28;20031;-73
2022/10/14 04:33:26;;;;;;;7.25;3.28;;;18.70;99.90;;;;;;4956400;28;20110;-72
2022/10/14 04:36:02;;;;;;;7.68;3.28;;;18.70;99.90;;;;;;4955102;29;20027;-72
2022/10/14 04:38:28;;;;;;;9.50;3.28;;;18.60;99.90;;;;;;4956691;28;20038;-72
2022/10/14 04:40:55;;;;;;;8.07;3.30;;;18.60;99.90;;;;;;4956284;28;20314;-73
2022/10/14 04:43:22;;;;;;;9.25;3.83;;;18.60;99.90;;;;;;4956382;28;20046;-72
2022/10/14 04:45:48;;;;;;;8.45;3.53;;;18.60;99.90;;;;;;4956597;28;20070;-72
2022/10/14 04:48:16;;;;;;;8.10;3.30;;;18.60;99.90;;;;;;4954939;29;20031;-73
2022/10/14 04:50:42;;;;;;;9.98;3.38;;;18.60;99.90;;;;;;4956424;28;20531;-72
2022/10/14 04:53:08;;;;;;;9.32;3.67;;;18.60;99.90;;;;;;4956120;29;20062;-72
2022/10/14 04:55:35;;;;;;;10.85;3.63;;;18.60;99.90;;;;;;4956581;28;20447;-72
2022/10/14 04:58:01;;;;;;;7.05;3.47;;;18.70;99.90;;;;;;4956105;28;20024;-72
2022/10/14 05:00:28;;;;;;;6.07;3.60;;;18.60;99.90;;;;;;4956218;28;20031;-72
2022/10/14 05:02:54;;;;;;;7.60;3.53;;;18.70;99.90;;;;;;4955811;28;20043;-72
2022/10/14 05:05:20;;;;;;;9.52;3.65;;;18.60;99.90;;;;;;4955553;29;20019;-71
2022/10/14 05:07:46;;;;;;;9.30;4.10;;;18.60;99.90;;;;;;4953987;29;20038;-71
2022/10/14 05:10:13;;;;;;;9.70;3.47;;;18.60;99.90;;;;;;4955653;29;20023;-72
2022/10/14 05:12:39;;;;;;;12.90;3.90;;;18.60;99.90;;;;;;4955720;29;20047;-73
2022/10/14 05:15:09;;;;;;;8.80;3.95;;;18.60;99.90;;;;;;4955029;28;20047;-72
2022/10/14 05:17:36;;;;;;;8.23;3.88;;;18.60;99.90;;;;;;4953427;29;20133;-75
2022/10/14 05:20:03;;;;;;;9.43;4.10;;;18.60;99.90;;;;;;4955377;28;20034;-72
2022/10/14 05:22:29;;;;;;;;;;;18.60;99.90;;;;;;4955610;28;20052;-72
2022/10/14 05:24:55;;;;;;;8.40;3.72;;;18.60;99.90;;;;;;4954944;28;19937;-72
2022/10/14 05:27:21;;;;;;;10.73;4.05;;;18.70;99.90;;;;;;4954711;29;20031;-70
2022/10/14 05:29:47;;;;;;;7.70;3.97;;;18.80;99.90;;;;;;4954439;29;20371;-72
2022/10/14 05:32:15;;;;;;;10.13;4.57;;;18.80;99.90;;;;;;4953919;29;20043;-72
2022/10/14 05:34:41;;;;;;;12.82;5.15;;;18.80;99.90;;;;;;4953635;28;20023;-72
2022/10/14 05:37:07;;;;;;;9.68;3.83;;;18.90;99.90;;;;;;4954110;28;20027;-69
2022/10/14 05:39:33;;;;;;;15.98;4.10;;;18.90;99.90;;;;;;4953647;29;20083;-68
2022/10/14 05:42:00;;;;;;;7.80;3.90;;;19.00;99.90;;;;;;4952459;29;20462;-68
2022/10/14 05:44:26;;;;;;;12.10;4.03;;;19.00;99.90;;;;;;4953567;28;20427;-70
2022/10/14 05:46:53;;;;;;;13.23;3.38;;;19.10;99.90;;;;;;4953347;29;20464;-70
2022/10/14 05:49:19;;;;;;;8.80;3.70;;;19.30;99.90;;;;;;4953676;29;20405;-70
2022/10/14 05:51:45;;;;;;;10.60;3.50;;;20.20;99.90;;;;;;4953460;29;20380;-71
2022/10/14 05:54:16;;;;;;;10.32;3.15;;;21.30;99.90;;;;;;4953038;28;20441;-69
2022/10/14 05:56:42;;;;;;;9.80;3.40;;;22.40;99.90;;;;;;4952054;28;20094;-70
2022/10/14 05:59:09;;;;;;;10.07;3.67;;;22.50;99.90;;;;;;4950282;29;20047;-69
2022/10/14 06:01:37;;;;;;;12.40;4.13;;;22.40;99.90;;;;;;4952452;28;20024;-70
2022/10/14 06:04:04;;;;;;;8.77;3.40;;;22.20;99.90;;;;;;4952519;28;20043;-69
2022/10/14 06:06:30;;;;;;;13.45;3.83;;;21.90;99.90;;;;;;4952602;28;20039;-70
2022/10/14 06:08:57;;;;;;;17.13;3.60;;;21.70;99.90;;;;;;4953074;28;20027;-69
2022/10/14 06:11:23;;;;;;;12.43;3.80;;;21.40;99.90;;;;;;4953180;29;20110;-70
2022/10/14 06:13:49;;;;;;;9.80;3.63;;;21.10;99.90;;;;;;4953199;28;20030;-69
2022/10/14 06:16:15;;;;;;;10.55;3.90;;;20.90;99.90;;;;;;4951723;29;20039;-67
2022/10/14 06:18:41;;;;;;;10.90;3.67;;;20.70;99.90;;;;;;4965943;28;20495;-71
2022/10/14 06:21:12;;;;;;;8.63;3.58;;;20.50;99.90;;;;;;4956211;28;20475;-69
2022/10/14 06:23:38;;;;;;;8.77;3.28;;;20.40;99.90;;;;;;4973268;28;20038;-70
2022/10/14 06:26:06;;;;;;;9.90;4.30;;;20.50;99.90;;;;;;4955527;28;20054;-70
2022/10/14 06:28:32;;;;;;;8.80;3.20;;;20.60;99.90;;;;;;4972712;28;20092;-71
2022/10/14 06:30:58;;;;;;;8.80;3.00;;;20.80;99.90;;;;;;4972677;28;20130;-70
2022/10/14 06:33:24;;;;;;;9.32;3.35;;;21.40;99.90;;;;;;4955820;28;20026;-69
2022/10/14 06:35:50;;;;;;;9.50;3.22;;;21.80;99.90;;;;;;4972207;28;20019;-69
2022/10/14 06:38:16;;;;;;;8.93;2.97;;;22.40;99.90;;;;;;4972523;28;20358;-70
2022/10/14 06:40:43;;;;;;;7.13;2.58;;;24.10;99.90;;;;;;4973283;28;20035;-70
2022/10/14 06:43:10;;;;;;;9.95;4.13;;;25.70;99.90;;;;;;4972825;28;20031;-69
2022/10/14 06:45:36;;;;;;;11.23;2.80;;;26.90;99.90;;;;;;4954946;28;20038;-68
2022/10/14 06:48:03;;;;;;;13.07;2.88;;;27.60;99.90;;;;;;4954932;28;20023;-69
2022/10/14 06:50:29;;;;;;;10.35;2.90;;;29.20;99.90;;;;;;4954598;28;20031;-69
2022/10/14 06:52:56;;;;;;;17.45;3.17;;;30.00;99.90;;;;;;4972536;28;20105;-70
2022/10/14 06:55:22;;;;;;;9.98;2.65;;;30.10;99.90;;;;;;4972051;28;20034;-69
2022/10/14 06:57:48;;;;;;;;;;;30.90;99.90;;;;;;4972628;28;20038;-68
2022/10/14 07:00:14;;;;;;;12.73;2.90;;;31.80;99.90;;;;;;4972149;28;19906;-69
2022/10/14 07:02:40;;;;;;;12.25;3.22;;;32.80;99.90;;;;;;4972228;28;20049;-69
2022/10/14 07:05:07;;;;;;;10.43;2.67;;;33.40;99.90;;;;;;4954635;28;20043;-69
2022/10/14 07:07:33;;;;;;;11.35;2.92;;;32.90;99.90;;;;;;4973257;28;20023;-69
2022/10/14 07:09:59;;;;;;;6.03;2.28;;;31.90;99.90;;;;;;4975954;28;20042;-69
2022/10/14 07:12:26;;;;;;;11.35;2.80;;;31.00;99.90;;;;;;4975898;28;20030;-68
2022/10/14 07:14:52;;;;;;;8.95;3.00;;;29.90;99.90;;;;;;4975827;28;20076;-68
2022/10/14 07:17:18;;;;;;;;;;;29.50;99.90;;;;;;4976166;28;20022;-67
2022/10/14 07:19:45;;;;;;;13.05;4.72;;;29.60;99.90;;;;;;4976102;28;20381;-68
2022/10/14 07:22:11;;;;;;;12.40;2.90;;;29.90;99.90;;;;;;4975830;28;20026;-68
2022/10/14 07:24:37;;;;;;;12.88;3.40;;;29.80;99.90;;;;;;4976132;28;20094;-68
2022/10/14 07:27:03;;;;;;;;;;;29.70;99.90;;;;;;4958556;28;20105;-69
2022/10/14 07:29:29;;;;;;;7.88;2.53;;;29.60;99.90;;;;;;4975492;28;20000;-68
2022/10/14 07:31:55;;;;;;;8.95;2.70;;;29.40;99.90;;;;;;4975289;28;20117;-69
2022/10/14 07:34:21;;;;;;;;;;;29.30;99.90;;;;;;4976361;28;20409;-68
2022/10/14 07:36:47;;;;;;;8.27;2.80;;;28.80;99.90;;;;;;4958090;28;19976;-68
2022/10/14 07:39:14;;;;;;;;;;;28.60;99.90;;;;;;4976131;28;20082;-69
2022/10/14 07:41:40;;;;;;;7.90;2.63;;;28.10;99.90;;;;;;4957949;28;19953;-68
2022/10/14 07:44:08;;;;;;;13.38;2.80;;;27.70;99.90;;;;;;4975364;28;20101;-68
2022/10/14 07:46:41;;;;;;;7.70;2.75;;;27.60;99.90;;;;;;4975358;28;20444;-68
2022/10/14 07:49:17;;;;;;;17.00;3.40;;;27.20;99.90;;;;;;4975030;28;20385;-67
2022/10/14 07:51:47;;;;;;;9.43;2.97;;;26.90;99.90;;;;;;4975440;28;20045;-68
2022/10/14 07:54:20;;;;;;;13.55;3.78;;;26.80;99.90;;;;;;4957764;28;20412;-68
2022/10/14 07:56:50;;;;;;;15.50;4.60;;;26.90;99.90;;;;;;4958299;28;20027;-68
2022/10/14 07:59:20;;;;;;;9.20;2.70;;;26.70;99.90;;;;;;4974670;28;20023;-68
2022/10/14 08:01:48;;;;;;;13.93;2.95;;;26.70;99.90;;;;;;4974747;28;20035;-68
2022/10/14 08:04:15;;;;;;;10.07;3.25;;;26.70;99.90;;;;;;4956971;28;20039;-68
2022/10/14 08:06:42;;;;;;;11.55;2.95;;;26.80;99.90;;;;;;4974393;28;20510;-68
2022/10/14 08:09:12;;;;;;;11.38;3.20;;;26.80;99.90;;;;;;4972780;28;20348;-66
2022/10/14 08:11:39;;;;;;;10.50;2.47;;;26.80;99.90;;;;;;4964535;28;20026;-68
2022/10/14 08:14:06;;;;;;;10.07;2.75;;;26.70;99.90;;;;;;4945873;28;20034;-66
2022/10/14 08:16:34;;;;;;;8.48;3.08;;;26.30;99.90;;;;;;4968742;28;20110;-69
2022/10/14 08:19:09;;;;;;;10.70;3.13;;;26.10;99.90;;;;;;4973964;28;20050;-69
2022/10/14 08:21:36;;;;;;;13.07;3.00;;;26.00;99.90;;;;;;4975221;28;20022;-70
2022/10/14 08:24:02;;;;;;;;;;;26.30;99.90;;;;;;4975731;28;20074;-69
2022/10/14 08:26:30;;;;;;;11.02;3.45;;;26.40;99.90;;;;;;4974992;28;19969;-70
2022/10/14 08:29:00;;;;;;;14.05;2.90;;;26.50;99.90;;;;;;4974839;28;20460;-70
2022/10/14 08:31:26;;;;;;;14.50;3.13;;;26.80;99.90;;;;;;4974624;28;20093;-70
2022/10/14 08:33:52;;;;;;;;;;;26.80;99.90;;;;;;4975531;28;20038;-69
2022/10/14 08:36:19;;;;;;;;;;;26.70;99.90;;;;;;4975091;28;20068;-70
2022/10/14 08:38:45;;;;;;;7.43;2.72;;;26.60;99.90;;;;;;4974735;28;19906;-69
2022/10/14 08:41:11;;;;;;;7.50;2.95;;;26.70;99.90;;;;;;4974509;28;20101;-68
2022/10/14 08:44:16;;;;;;;9.15;3.15;;;26.80;99.90;;;;;;4974804;28;20407;-70
2022/10/14 08:47:04;;;;;;;9.47;2.90;;;26.30;99.90;;;;;;4934887;28;20027;-69
2022/10/14 08:49:53;;;;;;;8.23;2.90;;;26.30;99.90;;;;;;4973606;28;20361;-70
2022/10/14 08:52:44;;;;;;;9.77;3.17;;;26.00;99.90;;;;;;4974644;28;20025;-70
2022/10/14 08:55:32;;;;;;;10.15;3.20;;;25.60;99.90;;;;;;4974396;28;20520;-70
2022/10/14 08:58:30;;;;;;;13.02;3.30;;;25.40;99.90;;;;;;4974618;28;20042;-70
2022/10/14 09:01:02;;;;;;;11.90;3.53;;;25.30;99.90;;;;;;4974532;28;20088;-70
2022/10/14 09:03:35;;;;;;;13.93;3.38;;;25.20;99.90;;;;;;4974796;28;20074;-70
2022/10/14 09:06:10;;;;;;;12.88;3.67;;;25.10;99.90;;;;;;4974671;28;20027;-69
2022/10/14 09:08:41;;;;;;;10.38;3.67;;;25.30;99.90;;;;;;4974743;28;20035;-70
2022/10/14 09:11:14;;;;;;;11.65;3.40;;;25.50;99.90;;;;;;4974322;28;20105;-70
2022/10/14 09:13:49;;;;;;;8.88;3.25;;;25.60;99.90;;;;;;4973961;28;20093;-67
2022/10/14 09:16:20;;;;;;;11.57;3.53;;;25.70;99.90;;;;;;4957077;28;20027;-70
2022/10/14 09:18:59;;;;;;;11.98;3.42;;;25.60;99.90;;;;;;4973742;28;20165;-70
2022/10/14 09:21:32;;;;;;;9.50;4.22;;;25.80;99.90;;;;;;4956709;28;20124;-69
2022/10/14 09:24:08;;;;;;;11.52;4.95;;;25.80;99.90;;;;;;4974048;28;20035;-70
2022/10/14 09:26:40;;;;;;;10.40;3.10;;;25.70;99.90;;;;;;4974071;28;20031;-70
2022/10/14 09:29:24;;;;;;;11.15;3.20;;;25.60;99.90;;;;;;4956864;28;20038;-70
2022/10/14 09:31:50;;;;;;;13.25;3.10;;;25.20;99.90;;;;;;4972978;28;20053;-70
2022/10/14 09:34:28;;;;;;;12.43;3.00;;;25.20;99.90;;;;;;4973860;28;20093;-70
2022/10/14 09:37:04;;;;;;;12.48;3.55;;;25.30;99.90;;;;;;4973182;28;20051;-69
2022/10/14 09:39:32;;;;;;;8.43;3.55;;;25.50;99.90;;;;;;4973565;28;20125;-69
2022/10/14 09:41:59;;;;;;;10.55;3.47;;;25.70;99.90;;;;;;4973362;28;20093;-70
2022/10/14 09:44:25;;;;;;;10.90;3.70;;;25.80;99.90;;;;;;4973778;28;20206;-69
2022/10/14 09:47:02;;;;;;;15.50;3.08;;;25.90;99.90;;;;;;4973490;28;20538;-70
2022/10/14 09:49:47;;;;;;;12.70;3.40;;;25.80;99.90;;;;;;4973142;28;20027;-70
2022/10/14 09:52:25;;;;;;;12.90;4.93;;;25.90;99.90;;;;;;4973374;28;20070;-69
2022/10/14 09:54:57;;;;;;;8.18;3.08;;;25.90;99.90;;;;;;4955481;28;20401;-70
2022/10/14 09:57:25;;;;;;;8.40;2.97;;;26.00;99.90;;;;;;4972950;28;20030;-69
2022/10/14 09:59:59;;;;;;;9.05;2.90;;;25.90;99.90;;;;;;4972964;28;20473;-69
2022/10/14 10:02:51;;;;;;;5.40;2.70;;;26.00;99.90;;;;;;4972442;28;20031;-70
2022/10/14 10:05:31;;;;;;;10.30;2.95;;;26.00;99.90;;;;;;4972534;28;20106;-70
2022/10/14 10:08:14;;;;;;;8.75;2.92;;;26.20;99.90;;;;;;4947263;29;20385;-69
2022/10/14 10:10:43;;;;;;;8.60;3.00;;;26.10;99.90;;;;;;4966270;28;20046;-69
2022/10/14 10:13:46;;;;;;;12.15;3.45;;;26.00;99.90;;;;;;4950786;28;20034;-64
2022/10/14 10:16:26;;;;;;;10.55;2.85;;;26.00;99.90;;;;;;4961156;28;20043;-66
2022/10/14 10:18:54;;;;;;;7.68;3.13;;;26.00;99.90;;;;;;4968336;28;20141;-68
2022/10/14 10:21:30;;;;;;;10.90;3.20;;;26.00;99.90;;;;;;4972543;28;20023;-65
2022/10/14 10:24:00;;;;;;;;;;;26.00;99.90;;;;;;4970486;28;20039;-69
2022/10/14 10:26:31;;;;;;;11.90;3.22;;;26.10;99.90;;;;;;4973135;28;20224;-69
2022/10/14 10:29:01;;;;;;;10.85;3.30;;;26.00;99.90;;;;;;4972544;28;20117;-66
2022/10/14 10:31:52;;;;;;;10.40;3.25;;;26.00;99.90;;;;;;4950313;28;20023;-69
2022/10/14 10:35:12;;;;;;;10.23;3.05;;;26.20;99.90;;;;;;4973182;28;20108;-70
2022/10/14 10:38:05;;;;;;;11.65;3.10;;;26.30;99.90;;;;;;4894890;29;20037;-69
2022/10/14 10:40:40;;;;;;;10.10;2.90;;;26.50;99.90;;;;;;4971314;28;20031;-69
2022/10/14 10:43:35;;;;;;;9.07;2.95;;;26.60;99.90;;;;;;4959285;28;20035;-67
2022/10/14 10:46:22;;;;;;;12.02;3.10;;;26.70;99.90;;;;;;4977172;28;20114;-69
2022/10/14 10:49:25;;;;;;;8.75;3.30;;;26.50;99.90;;;;;;4977494;28;20026;-68
2022/10/14 10:52:09;;;;;;;9.60;3.30;;;26.30;99.90;;;;;;4976430;28;20404;-68
2022/10/14 10:54:44;;;;;;;9.18;3.30;;;26.40;99.90;;;;;;4976409;28;20027;-69
2022/10/14 10:57:44;;;;;;;10.38;3.20;;;26.20;99.90;;;;;;4977027;28;20026;-67
2022/10/14 11:00:22;;;;;;;9.70;3.40;;;26.20;99.90;;;;;;4976721;28;20109;-68
2022/10/14 11:03:09;;;;;;;9.10;3.22;;;26.50;99.90;;;;;;4975434;28;20452;-70
2022/10/14 11:06:13;;;;;;;11.48;3.35;;;26.70;99.90;;;;;;4976124;28;20112;-66
2022/10/14 11:12:01;;;;;;;9.50;3.20;;;26.70;99.90;;;;;;4976020;28;20471;-67
2022/10/14 11:14:58;;;;;;;9.13;2.97;;;26.60;99.90;;;;;;4975259;28;20154;-68
2022/10/14 11:17:50;;;;;;;9.63;3.00;;;26.70;99.90;;;;;;4975604;28;20030;-67
2022/10/14 11:20:37;;;;;;;6.28;3.10;;;26.90;99.90;;;;;;4958341;28;20023;-66
2022/10/14 11:23:09;;;;;;;10.30;3.22;;;27.00;99.90;;;;;;4976233;28;20062;-69
2022/10/14 11:26:02;;;;;;;8.90;3.83;;;26.80;99.90;;;;;;4976365;28;20381;-69
2022/10/14 11:28:50;;;;;;;8.95;3.30;;;26.70;99.90;;;;;;4976062;28;20138;-68
2022/10/14 11:31:30;;;;;;;6.95;3.13;;;26.70;99.90;;;;;;4977032;28;20049;-69
2022/10/14 11:34:22;;;;;;;10.48;3.33;;;26.30;99.90;;;;;;4958444;28;20041;-65
2022/10/14 11:37:15;;;;;;;8.70;3.28;;;26.40;99.90;;;;;;4976396;28;20029;-66
2022/10/14 11:39:50;;;;;;;10.00;3.35;;;26.60;99.90;;;;;;4959090;28;20034;-68
2022/10/14 11:42:37;;;;;;;7.55;2.95;;;26.80;99.90;;;;;;4957907;28;20038;-67
2022/10/14 11:45:43;;;;;;;9.90;3.53;;;26.80;99.90;;;;;;4975925;28;20349;-67
2022/10/14 11:48:31;;;;;;;6.60;2.97;;;26.80;99.90;;;;;;4958558;28;20412;-70
2022/10/14 11:51:09;;;;;;;7.38;3.03;;;26.90;99.90;;;;;;4975864;28;20030;-67
2022/10/14 11:53:46;;;;;;;12.00;3.10;;;27.10;99.90;;;;;;4974827;28;20026;-69
2022/10/14 11:56:41;;;;;;;8.98;2.97;;;27.30;99.90;;;;;;4958161;28;20039;-69
2022/10/14 11:59:43;;;;;;;8.70;3.08;;;27.40;99.90;;;;;;4975949;28;20066;-69
2022/10/14 12:02:41;;;;;;;7.63;3.05;;;27.50;99.90;;;;;;4970689;28;20038;-68
2022/10/14 12:05:49;;;;;;;6.80;2.97;;;27.40;99.90;;;;;;4940285;28;20039;-65
2022/10/14 12:08:31;;;;;;;8.48;3.05;;;27.40;99.90;;;;;;4864258;29;20040;-69
2022/10/14 12:11:24;;;;;;;8.55;2.70;;;27.00;99.90;;;;;;4878884;29;20029;-68
2022/10/14 12:13:56;;;;;;;5.28;2.55;;;27.20;99.90;;;;;;4878990;29;20439;-68
2022/10/14 12:16:25;;;;;;;9.05;2.85;;;27.40;99.90;;;;;;4879407;29;20486;-67
2022/10/14 12:18:56;;;;;;;6.68;2.60;;;27.30;99.90;;;;;;4878587;29;20055;-68
2022/10/14 12:21:40;;;;;;;7.13;2.85;;;27.30;99.90;;;;;;4879103;29;20033;-69
2022/10/14 12:24:14;;;;;;;10.15;3.30;;;27.30;99.90;;;;;;4878976;29;20490;-69
2022/10/14 12:26:48;;;;;;;6.65;2.67;;;27.30;99.90;;;;;;4879431;29;20038;-68
2022/10/14 12:29:21;;;;;;;7.07;2.90;;;27.30;99.90;;;;;;4878975;29;20146;-67
2022/10/14 12:32:06;;;;;;;7.53;2.88;;;26.80;99.90;;;;;;4878820;29;20379;-69
2022/10/14 12:34:41;;;;;;;9.90;2.67;;;26.80;99.90;;;;;;4878696;29;20411;-69
2022/10/14 12:37:33;;;;;;;11.57;3.08;;;27.00;99.90;;;;;;4878646;29;20410;-69
2022/10/14 12:40:02;;;;;;;7.70;2.80;;;27.10;99.90;;;;;;4951529;29;20119;-69
2022/10/14 12:42:31;;;;;;;7.53;2.88;;;27.40;99.90;;;;;;4956122;29;20027;-68
2022/10/14 12:45:00;;;;;;;5.15;2.55;;;27.20;99.90;;;;;;4956405;29;20027;-69
2022/10/14 12:47:33;;;;;;;6.60;2.63;;;27.20;99.90;;;;;;4956243;29;20023;-69
2022/10/14 12:50:14;;;;;;;8.60;2.97;;;27.40;99.90;;;;;;4955852;29;20181;-68
2022/10/14 12:52:47;;;;;;;8.93;2.90;;;27.50;99.90;;;;;;4956127;29;20020;-68
2022/10/14 12:55:21;;;;;;;8.98;3.20;;;26.90;99.90;;;;;;4938208;29;20042;-69
2022/10/14 12:58:03;;;;;;;7.55;2.80;;;27.20;99.90;;;;;;4956263;29;20050;-67
2022/10/14 13:00:40;;;;;;;9.95;3.13;;;27.20;99.90;;;;;;4955870;29;20024;-69
2022/10/14 13:03:18;;;;;;;7.38;2.90;;;27.20;99.90;;;;;;4955598;29;20126;-69
2022/10/14 13:05:45;;;;;;;10.40;3.00;;;27.40;99.90;;;;;;4955721;28;20031;-69
2022/10/14 13:08:26;;;;;;;7.47;2.95;;;27.50;99.90;;;;;;4937963;29;20059;-68
2022/10/14 13:11:01;;;;;;;4.75;2.50;;;27.40;99.90;;;;;;4938083;29;20384;-69
2022/10/14 13:13:50;;;;;;;8.85;2.80;;;27.50;99.90;;;;;;4955699;29;20028;-69
2022/10/14 13:16:22;;;;;;;4.95;2.53;;;27.20;99.90;;;;;;4955718;29;20078;-68
2022/10/14 13:18:58;;;;;;;11.07;2.85;;;27.20;99.90;;;;;;4955372;29;20074;-69
2022/10/14 13:21:36;;;;;;;9.70;2.65;;;27.10;99.90;;;;;;4955552;29;20019;-69